createdAt,value
2022-08-20T00:00:41.861Z,101434.19
2022-08-20T00:03:21.354Z,101437.78
2022-08-20T00:06:01.472Z,101436.06
2022-08-20T00:08:29.384Z,101426.25
2022-08-20T00:10:57.229Z,101427.88
2022-08-20T00:13:29.226Z,101433.09
2022-08-20T00:15:56.393Z,101430.59
2022-08-20T00:18:23.937Z,101434.13
2022-08-20T00:20:52.846Z,101433.06
2022-08-20T00:23:21.825Z,101437.97
2022-08-20T00:25:49.447Z,101438.94
2022-08-20T00:28:16.419Z,101444.13
2022-08-20T00:30:46.285Z,101439.59
2022-08-20T00:33:17.588Z,101441.94
2022-08-20T00:35:49.953Z,101436.84
2022-08-20T00:38:16.796Z,101441.13
2022-08-20T00:40:47.950Z,101439.66
2022-08-20T00:43:49.397Z,101438.53
2022-08-20T00:46:21.669Z,101440.25
2022-08-20T00:48:57.540Z,101433.19
2022-08-20T00:51:36.327Z,101438.53
2022-08-20T00:54:14.028Z,101438.44
2022-08-20T00:56:44.031Z,101436.63
2022-08-20T00:59:15.036Z,101433.94
2022-08-20T01:01:55.771Z,101441.06
2022-08-20T01:04:27.025Z,101438.38
2022-08-20T01:06:54.568Z,101432.16
2022-08-20T01:09:49.754Z,101440.91
2022-08-20T01:12:09.965Z,101430.81
2022-08-20T01:14:45.825Z,101434.16
2022-08-20T01:17:17.764Z,101441.03
2022-08-20T01:19:49.315Z,101432.25
2022-08-20T01:22:44.321Z,101430.63
2022-08-20T01:25:20.545Z,101428.38
2022-08-20T01:27:55.241Z,101429.22
2022-08-20T01:30:27.347Z,101424.59
2022-08-20T01:32:54.589Z,101427.13
2022-08-20T01:35:22.649Z,101426.38
2022-08-20T01:37:49.493Z,101430.41
2022-08-20T01:40:34.121Z,101425.16
2022-08-20T01:43:01.696Z,101426.00
2022-08-20T01:45:30.343Z,101436.56
2022-08-20T01:47:58.731Z,101431.78
2022-08-20T01:50:28.983Z,101433.47
2022-08-20T01:53:04.436Z,101442.28
2022-08-20T01:55:31.880Z,101439.16
2022-08-20T01:58:00.128Z,101436.59
2022-08-20T02:00:27.427Z,101436.72
2022-08-20T02:02:54.280Z,101439.31
2022-08-20T02:05:21.694Z,101451.56
2022-08-20T02:07:48.750Z,101455.41
2022-08-20T02:10:17.443Z,101446.69
2022-08-20T02:12:44.257Z,101446.59
2022-08-20T02:15:12.962Z,101445.84
2022-08-20T02:17:41.756Z,101449.13
2022-08-20T02:20:19.290Z,101454.13
2022-08-20T02:22:56.592Z,101451.41
2022-08-20T02:25:26.724Z,101461.97
2022-08-20T02:27:55.223Z,101462.63
2022-08-20T02:30:28.984Z,101458.34
2022-08-20T02:32:57.931Z,101461.72
2022-08-20T02:35:25.598Z,101466.13
2022-08-20T02:37:53.535Z,101458.06
2022-08-20T02:40:27.111Z,101466.72
2022-08-20T02:43:00.175Z,101462.31
2022-08-20T02:45:29.920Z,101464.13
2022-08-20T02:47:59.053Z,101464.06
2022-08-20T02:50:27.500Z,101461.81
2022-08-20T02:52:54.629Z,101462.75
2022-08-20T02:55:27.598Z,101460.28
2022-08-20T02:58:00.159Z,101469.63
2022-08-20T03:00:38.012Z,101471.09
2022-08-20T03:03:10.539Z,101463.28
2022-08-20T03:05:40.657Z,101459.88
2022-08-20T03:08:10.342Z,101462.56
2022-08-20T03:10:38.993Z,101460.06
2022-08-20T03:13:11.263Z,101463.41
2022-08-20T03:15:47.098Z,101458.13
2022-08-20T03:18:14.938Z,101467.81
2022-08-20T03:20:42.852Z,101467.91
2022-08-20T03:23:13.916Z,101478.13
2022-08-20T03:25:40.748Z,101479.91
2022-08-20T03:28:08.653Z,101477.69
2022-08-20T03:30:36.064Z,101468.75
2022-08-20T03:33:03.042Z,101470.81
2022-08-20T03:35:31.725Z,101481.00
2022-08-20T03:37:58.816Z,101489.69
2022-08-20T03:40:29.631Z,101480.00
2022-08-20T03:42:56.672Z,101485.78
2022-08-20T03:45:25.545Z,101483.13
2022-08-20T03:47:53.768Z,101488.56
2022-08-20T03:50:24.712Z,101493.47
2022-08-20T03:52:54.123Z,101502.78
2022-08-20T03:55:22.651Z,101494.41
2022-08-20T03:57:52.873Z,101499.38
2022-08-20T04:00:42.634Z,101498.53
2022-08-20T04:03:11.257Z,101498.78
2022-08-20T04:05:40.763Z,101493.31
2022-08-20T04:08:15.876Z,101505.50
2022-08-20T04:10:45.437Z,101498.19
2022-08-20T04:13:13.712Z,101496.47
2022-08-20T04:15:41.298Z,101503.28
2022-08-20T04:18:09.828Z,101497.59
2022-08-20T04:20:39.685Z,101497.34
2022-08-20T04:23:08.685Z,101503.28
2022-08-20T04:25:37.149Z,101506.03
2022-08-20T04:28:28.679Z,101503.28
2022-08-20T04:30:58.860Z,101508.59
2022-08-20T04:33:35.603Z,101508.50
2022-08-20T04:36:05.781Z,101505.53
2022-08-20T04:38:48.460Z,101512.53
2022-08-20T04:41:23.482Z,101515.41
2022-08-20T04:43:54.149Z,101514.88
2022-08-20T04:46:23.590Z,101515.22
2022-08-20T04:48:50.757Z,101517.06
2022-08-20T04:51:18.827Z,101515.22
2022-08-20T04:53:51.728Z,101520.44
2022-08-20T04:56:23.431Z,101525.75
2022-08-20T04:58:51.480Z,101527.50
2022-08-20T05:01:18.457Z,101535.16
2022-08-20T05:03:47.790Z,101534.47
2022-08-20T05:06:16.322Z,101530.75
2022-08-20T05:08:43.928Z,101535.22
2022-08-20T05:11:34.389Z,101530.72
2022-08-20T05:13:58.427Z,101531.00
2022-08-20T05:16:25.340Z,101538.66
2022-08-20T05:18:52.816Z,101534.38
2022-08-20T05:21:21.336Z,101526.47
2022-08-20T05:23:49.410Z,101538.38
2022-08-20T05:26:17.194Z,101540.91
2022-08-20T05:28:51.211Z,101542.75
2022-08-20T05:31:32.230Z,101543.88
2022-08-20T05:34:02.942Z,101550.94
2022-08-20T05:36:29.949Z,101551.75
2022-08-20T05:38:56.985Z,101550.84
2022-08-20T05:41:29.214Z,101545.97
2022-08-20T05:44:00.690Z,101548.03
2022-08-20T05:46:28.332Z,101552.16
2022-08-20T05:48:55.200Z,101555.53
2022-08-20T05:51:26.704Z,101562.75
2022-08-20T05:53:53.545Z,101558.56
2022-08-20T05:56:20.358Z,101559.72
2022-08-20T05:58:53.719Z,101556.09
2022-08-20T06:01:20.686Z,101560.44
2022-08-20T06:04:06.017Z,101566.03
2022-08-20T06:06:46.380Z,101565.47
2022-08-20T06:09:16.682Z,101572.25
2022-08-20T06:12:04.673Z,101567.72
2022-08-20T06:14:32.330Z,101570.59
2022-08-20T06:17:13.727Z,101567.09
2022-08-20T06:19:44.546Z,101573.16
2022-08-20T06:22:20.809Z,101571.81
2022-08-20T06:24:55.035Z,101566.31
2022-08-20T06:27:22.238Z,101566.13
2022-08-20T06:29:49.862Z,101567.09
2022-08-20T06:32:16.935Z,101565.91
2022-08-20T06:34:50.695Z,101562.28
2022-08-20T06:37:31.737Z,101566.03
2022-08-20T06:40:09.926Z,101555.22
2022-08-20T06:42:48.257Z,101564.13
2022-08-20T06:45:24.485Z,101562.22
2022-08-20T06:47:52.444Z,101561.00
2022-08-20T06:50:22.922Z,101560.28
2022-08-20T06:52:53.006Z,101560.00
2022-08-20T06:55:21.418Z,101565.66
2022-08-20T06:57:56.002Z,101563.50
2022-08-20T07:00:23.217Z,101569.94
2022-08-20T07:02:50.106Z,101560.31
2022-08-20T07:05:17.188Z,101561.47
2022-08-20T07:07:49.512Z,101564.84
2022-08-20T07:10:18.032Z,101570.97
2022-08-20T07:12:46.909Z,101574.34
2022-08-20T07:15:14.860Z,101567.84
2022-08-20T07:17:42.286Z,101565.34
2022-08-20T07:20:13.207Z,101565.97
2022-08-20T07:22:40.967Z,101580.28
2022-08-20T07:25:11.658Z,101579.22
2022-08-20T07:27:39.176Z,101576.72
2022-08-20T07:30:26.711Z,101588.28
2022-08-20T07:32:53.577Z,101580.63
2022-08-20T07:35:21.678Z,101592.13
2022-08-20T07:37:51.816Z,101592.19
2022-08-20T07:40:26.092Z,101596.38
2022-08-20T07:42:58.680Z,101595.22
2022-08-20T07:45:25.824Z,101599.84
2022-08-20T07:47:56.357Z,101603.38
2022-08-20T07:50:25.928Z,101614.72
2022-08-20T07:52:53.164Z,101610.22
2022-08-20T07:55:21.945Z,101609.25
2022-08-20T07:57:50.574Z,101615.66
2022-08-20T08:00:21.874Z,101614.31
2022-08-20T08:02:48.892Z,101621.72
2022-08-20T08:05:17.754Z,101615.03
2022-08-20T08:07:46.476Z,101619.22
2022-08-20T08:10:18.648Z,101617.97
2022-08-20T08:12:49.620Z,101627.44
2022-08-20T08:15:21.964Z,101630.81
2022-08-20T08:17:50.860Z,101630.81
2022-08-20T08:20:17.939Z,101623.06
2022-08-20T08:22:44.865Z,101637.09
2022-08-20T08:25:16.123Z,101622.34
2022-08-20T08:27:46.414Z,101622.50
2022-08-20T08:30:13.707Z,101613.22
2022-08-20T08:33:03.236Z,101614.00
2022-08-20T08:35:32.596Z,101615.31
2022-08-20T08:38:01.881Z,101614.19
2022-08-20T08:40:31.001Z,101615.88
2022-08-20T08:43:01.104Z,101624.63
2022-08-20T08:45:35.167Z,101623.44
2022-08-20T08:48:02.145Z,101621.19
2022-08-20T08:50:53.272Z,101617.72
2022-08-20T08:53:26.658Z,101616.09
2022-08-20T08:55:54.176Z,101617.09
2022-08-20T08:58:21.081Z,101622.84
2022-08-20T09:00:52.750Z,101621.09
2022-08-20T09:03:29.289Z,101624.16
2022-08-20T09:05:59.960Z,101632.63
2022-08-20T09:08:33.503Z,101625.69
2022-08-20T09:11:06.183Z,101627.09
2022-08-20T09:13:33.284Z,101629.72
2022-08-20T09:16:00.343Z,101634.50
2022-08-20T09:18:27.244Z,101635.81
2022-08-20T09:20:54.261Z,101634.03
2022-08-20T09:23:21.111Z,101633.63
2022-08-20T09:25:48.060Z,101645.94
2022-08-20T09:28:15.297Z,101645.56
2022-08-20T09:30:43.017Z,101635.50
2022-08-20T09:33:12.266Z,101636.31
2022-08-20T09:35:40.186Z,101640.69
2022-08-20T09:38:07.774Z,101638.72
2022-08-20T09:40:34.856Z,101645.38
2022-08-20T09:43:03.465Z,101634.00
2022-08-20T09:45:30.357Z,101634.75
2022-08-20T09:47:57.458Z,101634.78
2022-08-20T09:50:27.168Z,101635.09
2022-08-20T09:52:55.678Z,101631.63
2022-08-20T09:55:38.654Z,101646.41
2022-08-20T09:58:23.432Z,101636.13
2022-08-20T10:00:50.570Z,101637.09
2022-08-20T10:03:17.735Z,101640.44
2022-08-20T10:05:45.246Z,101640.28
2022-08-20T10:08:13.064Z,101634.75
2022-08-20T10:10:39.961Z,101653.06
2022-08-20T10:13:06.854Z,101647.53
2022-08-20T10:15:35.503Z,101642.16
2022-08-20T10:18:05.862Z,101647.75
2022-08-20T10:20:32.775Z,101645.81
2022-08-20T10:22:59.943Z,101653.34
2022-08-20T10:25:28.740Z,101645.09
2022-08-20T10:27:56.419Z,101646.59
2022-08-20T10:30:23.358Z,101644.22
2022-08-20T10:32:50.208Z,101639.28
2022-08-20T10:35:18.176Z,101636.38
2022-08-20T10:37:45.568Z,101644.88
2022-08-20T10:40:15.945Z,101653.72
2022-08-20T10:42:43.980Z,101657.41
2022-08-20T10:45:12.679Z,101655.06
2022-08-20T10:47:39.562Z,101660.63
2022-08-20T10:50:09.902Z,101653.06
2022-08-20T10:52:36.721Z,101653.72
2022-08-20T10:55:04.884Z,101658.22
2022-08-20T10:57:33.737Z,101655.72
2022-08-20T11:00:01.652Z,101661.91
2022-08-20T11:02:30.103Z,101654.13
2022-08-20T11:04:57.125Z,101651.88
2022-08-20T11:07:55.610Z,101658.91
2022-08-20T11:10:13.820Z,101653.66
2022-08-20T11:12:41.058Z,101650.00
2022-08-20T11:15:11.502Z,101658.22
2022-08-20T11:17:41.716Z,101651.34
2022-08-20T11:20:10.579Z,101650.00
2022-08-20T11:22:37.702Z,101653.69
2022-08-20T11:25:06.518Z,101653.94
2022-08-20T11:27:39.438Z,101661.81
2022-08-20T11:30:09.004Z,101656.88
2022-08-20T11:32:36.326Z,101651.88
2022-08-20T11:35:24.516Z,101655.59
2022-08-20T11:37:52.623Z,101656.75
2022-08-20T11:40:19.900Z,101659.84
2022-08-20T11:43:11.141Z,101658.56
2022-08-20T11:45:37.745Z,101657.69
2022-08-20T11:48:05.401Z,101653.28
2022-08-20T11:50:32.596Z,101651.69
2022-08-20T11:53:01.603Z,101650.06
2022-08-20T11:55:30.631Z,101649.66
2022-08-20T11:57:59.807Z,101649.28
2022-08-20T12:00:32.008Z,101647.03
2022-08-20T12:03:01.814Z,101649.66
2022-08-20T12:05:30.194Z,101653.41
2022-08-20T12:08:00.213Z,101648.31
2022-08-20T12:10:28.231Z,101652.75
2022-08-20T12:12:56.720Z,101648.53
2022-08-20T12:15:24.343Z,101651.94
2022-08-20T12:17:51.159Z,101659.94
2022-08-20T12:20:18.172Z,101657.38
2022-08-20T12:22:45.186Z,101657.72
2022-08-20T12:25:13.323Z,101661.84
2022-08-20T12:27:41.010Z,101667.78
2022-08-20T12:30:15.013Z,101667.69
2022-08-20T12:32:42.503Z,101663.69
2022-08-20T12:35:10.358Z,101665.81
2022-08-20T12:37:37.448Z,101666.16
2022-08-20T12:40:08.062Z,101672.06
2022-08-20T12:42:35.146Z,101655.91
2022-08-20T12:45:02.133Z,101667.91
2022-08-20T12:47:31.619Z,101664.91
2022-08-20T12:50:01.365Z,101657.38
2022-08-20T12:52:30.164Z,101661.88
2022-08-20T12:54:58.152Z,101659.00
2022-08-20T12:57:33.120Z,101661.75
2022-08-20T13:00:03.468Z,101663.91
2022-08-20T13:02:30.815Z,101658.03
2022-08-20T13:05:02.502Z,101653.34
2022-08-20T13:07:32.419Z,101657.78
2022-08-20T13:10:00.326Z,101658.09
2022-08-20T13:12:27.276Z,101657.94
2022-08-20T13:14:54.291Z,101655.09
2022-08-20T13:17:24.351Z,101651.88
2022-08-20T13:20:09.152Z,101646.69
2022-08-20T13:22:36.592Z,101649.34
2022-08-20T13:25:05.160Z,101655.34
2022-08-20T13:27:32.302Z,101645.84
2022-08-20T13:29:59.372Z,101636.09
2022-08-20T13:32:26.931Z,101647.41
2022-08-20T13:34:53.788Z,101634.28
2022-08-20T13:37:26.251Z,101636.09
2022-08-20T13:39:54.389Z,101638.78
2022-08-20T13:42:21.860Z,101626.34
2022-08-20T13:44:49.029Z,101636.13
2022-08-20T13:47:24.425Z,101632.59
2022-08-20T13:49:59.812Z,101635.28
2022-08-20T13:52:27.799Z,101637.91
2022-08-20T13:54:54.920Z,101623.75
2022-08-20T13:57:24.738Z,101635.13
2022-08-20T13:59:54.835Z,101629.88
2022-08-20T14:02:22.653Z,101630.81
2022-08-20T14:04:50.916Z,101628.16
2022-08-20T14:07:32.263Z,101618.41
2022-08-20T14:10:04.226Z,101618.38
2022-08-20T14:12:31.071Z,101620.78
2022-08-20T14:14:58.128Z,101624.28
2022-08-20T14:17:37.017Z,101622.81
2022-08-20T14:20:08.445Z,101618.34
2022-08-20T14:22:36.743Z,101615.63
2022-08-20T14:25:06.086Z,101620.97
2022-08-20T14:27:34.082Z,101617.28
2022-08-20T14:30:03.908Z,101621.00
2022-08-20T14:32:30.735Z,101616.59
2022-08-20T14:34:59.352Z,101621.84
2022-08-20T14:37:32.994Z,101615.78
2022-08-20T14:40:02.557Z,101619.31
2022-08-20T14:42:30.512Z,101621.06
2022-08-20T14:44:59.012Z,101625.44
2022-08-20T14:47:31.681Z,101626.41
2022-08-20T14:50:04.631Z,101621.91
2022-08-20T14:52:36.381Z,101612.25
2022-08-20T14:55:10.908Z,101621.09
2022-08-20T14:57:39.570Z,101613.94
2022-08-20T15:00:10.645Z,101608.31
2022-08-20T15:02:38.409Z,101610.88
2022-08-20T15:05:07.024Z,101611.69
2022-08-20T15:07:37.362Z,101610.06
2022-08-20T15:10:08.337Z,101613.72
2022-08-20T15:12:36.097Z,101621.75
2022-08-20T15:15:15.256Z,101613.59
2022-08-20T15:17:48.720Z,101618.34
2022-08-20T15:20:20.579Z,101614.84
2022-08-20T15:22:48.734Z,101619.22
2022-08-20T15:25:19.620Z,101615.69
2022-08-20T15:27:46.919Z,101618.31
2022-08-20T15:30:18.242Z,101610.38
2022-08-20T15:32:45.689Z,101610.31
2022-08-20T15:35:13.285Z,101609.34
2022-08-20T15:37:46.286Z,101616.53
2022-08-20T15:40:17.037Z,101609.53
2022-08-20T15:42:46.650Z,101610.25
2022-08-20T15:45:22.022Z,101628.03
2022-08-20T15:47:52.053Z,101614.69
2022-08-20T15:50:33.107Z,101615.47
2022-08-20T15:53:11.453Z,101621.03
2022-08-20T15:55:44.117Z,101610.44
2022-08-20T15:58:43.712Z,101611.31
2022-08-20T16:01:39.730Z,101617.25
2022-08-20T16:04:45.079Z,101605.78
2022-08-20T16:07:23.012Z,101612.22
2022-08-20T16:10:07.132Z,101613.13
2022-08-20T16:12:38.690Z,101615.78
2022-08-20T16:15:11.581Z,101617.44
2022-08-20T16:17:47.948Z,101613.09
2022-08-20T16:20:22.365Z,101620.19
2022-08-20T16:22:49.800Z,101619.25
2022-08-20T16:25:22.767Z,101626.22
2022-08-20T16:28:04.900Z,101627.97
2022-08-20T16:30:41.537Z,101635.75
2022-08-20T16:33:16.326Z,101626.94
2022-08-20T16:36:23.796Z,101634.72
2022-08-20T16:38:56.842Z,101631.28
2022-08-20T16:41:42.883Z,101633.00
2022-08-20T16:44:12.731Z,101632.97
2022-08-20T16:46:54.945Z,101633.91
2022-08-20T16:49:25.740Z,101636.72
2022-08-20T16:51:53.574Z,101636.31
2022-08-20T16:54:28.363Z,101635.34
2022-08-20T16:57:00.384Z,101628.28
2022-08-20T16:59:28.368Z,101634.59
2022-08-20T17:02:07.243Z,101639.03
2022-08-20T17:04:58.637Z,101645.38
2022-08-20T17:07:46.440Z,101649.09
2022-08-20T17:10:24.117Z,101639.50
2022-08-20T17:13:05.467Z,101645.63
2022-08-20T17:15:35.127Z,101644.53
2022-08-20T17:18:23.654Z,101651.03
2022-08-20T17:20:50.541Z,101655.22
2022-08-20T17:23:19.690Z,101653.59
2022-08-20T17:26:03.920Z,101649.06
2022-08-20T17:28:35.358Z,101641.38
2022-08-20T17:31:02.592Z,101649.47
2022-08-20T17:33:33.805Z,101638.00
2022-08-20T17:36:18.466Z,101643.47
2022-08-20T17:38:50.301Z,101643.56
2022-08-20T17:41:26.776Z,101644.47
2022-08-20T17:43:59.206Z,101654.78
2022-08-20T17:46:29.083Z,101656.16
2022-08-20T17:48:59.663Z,101654.59
2022-08-20T17:51:38.010Z,101650.56
2022-08-20T17:54:32.830Z,101655.88
2022-08-20T17:57:04.940Z,101652.91
2022-08-20T18:00:01.603Z,101659.00
2022-08-20T18:02:33.375Z,101659.69
2022-08-20T18:05:01.092Z,101663.94
2022-08-20T18:07:33.945Z,101660.25
2022-08-20T18:10:14.910Z,101658.03
2022-08-20T18:13:05.436Z,101662.56
2022-08-20T18:15:38.519Z,101661.44
2022-08-20T18:18:25.091Z,101661.53
2022-08-20T18:21:10.682Z,101665.16
2022-08-20T18:23:47.695Z,101652.59
2022-08-20T18:26:24.027Z,101664.06
2022-08-20T18:29:23.828Z,101656.06
2022-08-20T18:31:54.756Z,101665.59
2022-08-20T18:34:33.598Z,101670.72
2022-08-20T18:37:21.299Z,101671.75
2022-08-20T18:39:50.511Z,101674.88
2022-08-20T18:42:29.663Z,101679.84
2022-08-20T18:44:57.252Z,101674.78
2022-08-20T18:47:33.037Z,101681.41
2022-08-20T18:50:26.146Z,101682.97
2022-08-20T18:53:16.887Z,101687.50
2022-08-20T18:55:59.302Z,101695.84
2022-08-20T18:58:33.971Z,101699.00
2022-08-20T19:01:03.451Z,101696.41
2022-08-20T19:03:38.478Z,101693.28
2022-08-20T19:06:27.038Z,101696.66
2022-08-20T19:09:06.164Z,101692.81
2022-08-20T19:11:53.238Z,101690.56
2022-08-20T19:14:35.543Z,101698.16
2022-08-20T19:17:10.026Z,101689.16
2022-08-20T19:19:38.022Z,101685.25
2022-08-20T19:22:05.333Z,101696.59
2022-08-20T19:24:35.481Z,101692.81
2022-08-20T19:27:08.276Z,101691.19
2022-08-20T19:29:47.338Z,101697.41
2022-08-20T19:32:29.717Z,101690.88
2022-08-20T19:35:00.491Z,101692.31
2022-08-20T19:37:46.549Z,101694.56
2022-08-20T19:40:28.533Z,101695.88
2022-08-20T19:42:58.447Z,101693.25
2022-08-20T19:45:41.350Z,101695.16
2022-08-20T19:48:27.457Z,101691.56
2022-08-20T19:51:08.916Z,101698.22
2022-08-20T19:53:43.034Z,101699.59
2022-08-20T19:56:14.573Z,101700.91
2022-08-20T19:58:42.459Z,101694.59
2022-08-20T20:01:21.408Z,101691.03
2022-08-20T20:03:59.872Z,101695.66
2022-08-20T20:06:28.686Z,101685.69
2022-08-20T20:09:03.900Z,101694.06
2022-08-20T20:11:36.290Z,101678.00
2022-08-20T20:14:10.517Z,101680.63
2022-08-20T20:16:38.736Z,101681.44
2022-08-20T20:19:28.567Z,101683.75
2022-08-20T20:22:19.163Z,101680.13
2022-08-20T20:24:56.752Z,101679.94
2022-08-20T20:27:26.636Z,101679.72
2022-08-20T20:30:11.176Z,101681.41
2022-08-20T20:32:49.222Z,101680.22
2022-08-20T20:35:34.862Z,101682.78
2022-08-20T20:38:08.209Z,101686.13
2022-08-20T20:40:50.391Z,101677.91
2022-08-20T20:43:37.577Z,101676.44
2022-08-20T20:46:19.946Z,101674.91
2022-08-20T20:48:52.189Z,101677.19
2022-08-20T20:51:27.979Z,101671.19
2022-08-20T20:53:59.620Z,101670.97
2022-08-20T20:56:32.289Z,101665.78
2022-08-20T20:59:05.866Z,101660.69
2022-08-20T21:01:49.087Z,101665.00
2022-08-20T21:04:21.826Z,101660.34
2022-08-20T21:06:49.646Z,101658.59
2022-08-20T21:09:17.257Z,101653.63
2022-08-20T21:11:44.496Z,101655.84
2022-08-20T21:14:11.549Z,101649.88
2022-08-20T21:16:42.396Z,101653.59
2022-08-20T21:19:10.418Z,101655.38
2022-08-20T21:21:39.091Z,101662.56
2022-08-20T21:24:07.231Z,101658.69
2022-08-20T21:26:34.641Z,101653.50
2022-08-20T21:29:01.748Z,101652.75
2022-08-20T21:31:34.014Z,101654.81
2022-08-20T21:34:01.331Z,101659.88
2022-08-20T21:36:28.451Z,101660.56
2022-08-20T21:38:56.129Z,101651.78
2022-08-20T21:41:29.569Z,101650.88
2022-08-20T21:44:24.853Z,101645.13
2022-08-20T21:46:54.156Z,101645.88
2022-08-20T21:49:22.569Z,101647.63
2022-08-20T21:51:50.745Z,101644.94
2022-08-20T21:54:18.677Z,101648.06
2022-08-20T21:56:54.411Z,101644.16
2022-08-20T21:59:23.389Z,101641.72
2022-08-20T22:01:50.640Z,101643.28
2022-08-20T22:04:18.201Z,101638.97
2022-08-20T22:06:46.105Z,101630.09
2022-08-20T22:09:13.792Z,101636.47
2022-08-20T22:11:41.423Z,101627.47
2022-08-20T22:14:10.427Z,101627.31
2022-08-20T22:16:37.618Z,101630.41
2022-08-20T22:19:12.814Z,101636.97
2022-08-20T22:21:43.309Z,101629.25
2022-08-20T22:24:11.634Z,101640.31
2022-08-20T22:26:40.634Z,101634.44
2022-08-20T22:29:10.058Z,101633.59
2022-08-20T22:31:40.492Z,101630.31
2022-08-20T22:34:09.970Z,101632.13
2022-08-20T22:36:37.141Z,101622.28
2022-08-20T22:39:04.568Z,101628.09
2022-08-20T22:41:31.437Z,101619.78
2022-08-20T22:43:58.435Z,101627.31
2022-08-20T22:46:29.094Z,101630.38
2022-08-20T22:48:56.506Z,101626.91
2022-08-20T22:51:32.435Z,101631.69
2022-08-20T22:54:04.059Z,101635.56
2022-08-20T22:56:31.339Z,101635.31
2022-08-20T22:58:59.223Z,101635.97
2022-08-20T23:01:27.375Z,101629.75
2022-08-20T23:03:57.420Z,101631.72
2022-08-20T23:06:26.808Z,101627.22
2022-08-20T23:08:53.656Z,101626.94
2022-08-20T23:11:21.281Z,101626.94
2022-08-20T23:13:48.280Z,101624.81
2022-08-20T23:16:15.113Z,101626.16
2022-08-20T23:18:42.030Z,101624.41
2022-08-20T23:21:08.968Z,101619.09
2022-08-20T23:23:35.821Z,101627.22
2022-08-20T23:26:02.750Z,101622.78
2022-08-20T23:28:29.938Z,101622.09
2022-08-20T23:30:56.748Z,101625.44
2022-08-20T23:33:23.584Z,101617.84
2022-08-20T23:35:50.846Z,101618.25
2022-08-20T23:38:17.690Z,101616.81
2022-08-20T23:40:44.688Z,101623.97
2022-08-20T23:43:11.519Z,101620.72
2022-08-20T23:45:40.241Z,101620.03
2022-08-20T23:48:08.104Z,101615.69
2022-08-20T23:50:35.781Z,101615.91
2022-08-20T23:53:04.444Z,101616.81
2022-08-20T23:55:31.960Z,101616.97
2022-08-20T23:57:58.749Z,101613.94
